createdAt,value
2018-02-26T01:56:45.403Z,80.15
2018-02-26T01:57:18.354Z,80.44
2018-02-26T01:58:18.371Z,80.06
2018-02-26T01:59:18.318Z,80.63
2018-02-26T02:00:18.332Z,80.72
2018-02-26T02:01:18.271Z,80.63
2018-02-26T02:02:18.260Z,80.72
2018-02-26T02:03:18.225Z,80.91
2018-02-26T02:04:18.282Z,80.82
2018-02-26T02:05:18.544Z,80.53
2018-02-26T02:06:18.232Z,80.34
2018-02-26T02:07:18.153Z,80.82
2018-02-26T02:08:18.120Z,81.01
2018-02-26T02:09:18.131Z,80.63
2018-02-26T02:10:18.077Z,80.34
2018-02-26T02:11:18.060Z,80.63
2018-02-26T02:12:18.043Z,80.34
2018-02-26T02:13:18.014Z,80.44
2018-02-26T02:14:18.007Z,80.25
2018-02-26T02:15:17.980Z,80.63
2018-02-26T02:16:18.651Z,80.53
2018-02-26T02:17:17.936Z,80.53
2018-02-26T02:18:17.912Z,80.53
2018-02-26T02:19:17.879Z,80.63
2018-02-26T02:20:17.902Z,80.63
2018-02-26T02:21:17.909Z,79.97
2018-02-26T02:22:17.826Z,80.25
2018-02-26T02:23:17.806Z,80.25
2018-02-26T02:24:17.839Z,80.34
2018-02-26T02:25:17.757Z,80.44
2018-02-26T02:26:17.743Z,79.97
2018-02-26T02:27:17.772Z,80.06
2018-02-26T02:28:17.699Z,80.44
2018-02-26T02:29:17.678Z,80.53
2018-02-26T02:30:17.654Z,80.53
2018-02-26T02:31:17.662Z,80.53
2018-02-26T02:32:17.599Z,80.63
2018-02-26T02:33:17.609Z,80.53
2018-02-26T02:34:17.578Z,80.44
2018-02-26T02:35:17.542Z,80.06
2018-02-26T02:36:17.519Z,80.63
2018-02-26T02:37:17.515Z,80.82
2018-02-26T02:38:17.546Z,80.15
2018-02-26T02:39:17.445Z,80.15
2018-02-26T02:40:17.431Z,79.87
2018-02-26T02:41:17.409Z,80.06
2018-02-26T02:42:17.392Z,79.49
2018-02-26T02:43:17.481Z,79.87
2018-02-26T02:44:17.391Z,80.06
2018-02-26T02:45:17.327Z,79.87
2018-02-26T02:46:17.359Z,80.06
2018-02-26T02:47:17.291Z,79.30
2018-02-26T02:48:17.304Z,79.11
2018-02-26T02:49:17.243Z,79.40
2018-02-26T03:01:14.165Z,78.83
2018-02-26T03:02:13.728Z,79.02
2018-02-26T03:03:13.747Z,78.83
2018-02-26T03:04:13.716Z,78.92
2018-02-26T03:05:13.680Z,79.11
2018-02-26T03:06:13.635Z,78.74
2018-02-26T03:07:13.626Z,79.21
2018-02-26T03:08:13.593Z,78.74
2018-02-26T03:09:13.636Z,79.21
2018-02-26T03:10:13.561Z,78.92
2018-02-26T03:11:13.539Z,78.64
2018-02-26T03:12:14.134Z,78.45
2018-02-26T03:13:13.496Z,78.36
2018-02-26T03:14:13.484Z,78.64
2018-02-26T03:15:13.460Z,78.27
2018-02-26T03:58:02.854Z,76.66
2018-02-26T03:58:35.758Z,76.57
2018-02-26T04:09:58.901Z,76.76
2018-02-26T04:10:58.878Z,76.47
2018-02-26T04:11:58.915Z,76.95
2018-02-26T04:12:58.841Z,76.76
2018-02-26T04:13:58.813Z,76.66
2018-02-26T04:14:58.823Z,76.47
2018-02-26T04:15:58.767Z,76.85
2018-02-26T04:16:58.741Z,76.95
2018-02-26T04:17:58.765Z,76.47
2018-02-26T04:18:58.706Z,76.38
2018-02-26T06:13:26.825Z,75.43
2018-02-26T06:13:59.740Z,75.05
2018-02-26T06:14:59.694Z,75.05
2018-02-26T06:15:59.708Z,75.34
2018-02-26T06:16:59.641Z,75.24
2018-02-26T06:17:59.634Z,75.15
2018-02-26T06:18:59.953Z,75.24
2018-02-26T06:19:59.612Z,75.34
2018-02-26T06:20:59.600Z,75.62
2018-02-26T06:21:59.648Z,75.62
2018-02-26T06:22:59.574Z,75.34
2018-02-26T06:23:59.537Z,75.15
2018-02-26T06:24:59.679Z,75.34
2018-02-26T06:25:59.467Z,75.81
2018-02-26T06:26:59.719Z,75.43
2018-02-26T06:27:59.564Z,75.43
2018-02-26T06:28:59.447Z,75.53
2018-02-26T06:29:59.435Z,75.43
2018-02-26T06:30:59.984Z,75.81
2018-02-26T06:31:59.357Z,75.81
2018-02-26T06:32:59.365Z,75.15
2018-02-26T06:33:59.299Z,75.43
2018-02-26T06:34:59.289Z,75.34
2018-02-26T06:35:59.374Z,75.05
2018-02-26T06:36:59.341Z,75.43
2018-02-26T06:37:59.279Z,75.21
2018-02-26T06:38:59.321Z,75.49
2018-02-26T06:39:59.163Z,75.68
2018-02-26T06:40:59.134Z,75.62
2018-02-26T06:41:59.121Z,76.15
2018-02-26T06:42:59.156Z,75.96
2018-02-26T06:43:59.130Z,76.25
2018-02-26T06:44:59.113Z,76.06
2018-02-26T06:45:59.094Z,76.06
2018-02-26T06:46:59.070Z,76.06
2018-02-26T06:47:58.984Z,76.06
2018-02-26T06:48:58.953Z,76.15
2018-02-26T06:49:58.945Z,75.96
2018-02-26T06:50:58.984Z,75.96
2018-02-26T06:51:58.981Z,76.06
2018-02-26T06:52:58.869Z,76.06
2018-02-26T06:53:58.859Z,75.96
2018-02-26T06:54:58.913Z,76.62
2018-02-26T06:55:59.414Z,76.15
2018-02-26T06:56:58.791Z,76.62
2018-02-26T06:57:58.824Z,76.06
2018-02-26T06:58:58.810Z,76.06
2018-02-26T06:59:58.768Z,76.15
2018-02-26T07:00:58.711Z,75.68
2018-02-26T07:01:58.720Z,75.87
2018-02-26T07:02:58.713Z,75.87
2018-02-26T07:03:58.635Z,75.96
2018-02-26T07:04:58.683Z,75.78
2018-02-26T07:05:58.651Z,75.96
2018-02-26T07:06:58.640Z,75.96
2018-02-26T07:07:58.547Z,75.68
2018-02-26T07:08:58.583Z,75.87
2018-02-26T07:09:58.514Z,75.87
2018-02-26T07:10:58.525Z,75.87
2018-02-26T07:11:58.527Z,75.87
2018-02-26T07:12:58.555Z,75.68
2018-02-26T07:13:58.455Z,75.71
2018-02-26T07:14:58.543Z,75.49
2018-02-26T07:15:58.432Z,75.11
2018-02-26T07:16:58.383Z,75.68
2018-02-26T07:17:58.373Z,75.49
2018-02-26T07:18:58.346Z,75.71
2018-02-26T07:19:58.295Z,75.78
2018-02-26T07:20:58.260Z,75.49
2018-02-26T07:21:58.259Z,75.40
2018-02-26T07:22:58.314Z,75.40
2018-02-26T07:23:58.196Z,75.21
2018-02-26T07:25:09.940Z,75.11
2018-02-26T07:25:58.238Z,75.49
2018-02-26T07:26:58.163Z,75.49
2018-02-26T07:27:58.234Z,75.40
2018-02-26T07:28:58.133Z,75.71
2018-02-26T07:29:58.069Z,75.90
2018-02-26T07:30:58.055Z,75.21
2018-02-26T07:31:58.037Z,75.49
2018-02-26T07:32:58.014Z,75.62
2018-02-26T07:33:57.989Z,75.05
2018-02-26T07:34:57.980Z,75.30
2018-02-26T07:35:57.991Z,75.90
2018-02-26T07:36:57.937Z,76.06
2018-02-26T07:37:57.955Z,75.68
2018-02-26T07:38:57.936Z,75.87
2018-02-26T07:39:57.876Z,75.96
2018-02-26T07:40:57.844Z,75.49
2018-02-26T07:41:58.379Z,76.28
2018-02-26T07:42:57.775Z,76.19
2018-02-26T07:43:57.784Z,76.25
2018-02-26T07:44:57.777Z,76.28
2018-02-26T07:45:57.725Z,76.09
2018-02-26T07:46:57.723Z,76.09
2018-02-26T07:47:57.746Z,76.00
2018-02-26T07:48:57.663Z,75.90
2018-02-26T07:49:57.718Z,75.81
2018-02-26T07:50:57.622Z,75.90
2018-02-26T07:51:57.586Z,76.38
2018-02-26T07:52:57.575Z,76.19
2018-02-26T07:53:57.558Z,76.09
2018-02-26T07:54:58.314Z,75.90
2018-02-26T07:55:57.504Z,76.19
2018-02-26T07:56:57.488Z,76.47
2018-02-26T07:57:57.477Z,76.47
2018-02-26T07:58:57.472Z,76.57
2018-02-26T07:59:57.443Z,76.47
2018-02-26T08:00:58.033Z,77.13
2018-02-26T08:01:57.454Z,77.04
2018-02-26T08:02:58.065Z,77.70
2018-02-26T08:03:57.340Z,77.28
2018-02-26T08:04:58.011Z,77.66
2018-02-26T08:05:57.410Z,78.08
2018-02-26T08:06:57.275Z,78.17
2018-02-26T08:07:57.344Z,78.45
2018-02-26T08:08:57.217Z,78.45
2018-02-26T08:09:57.212Z,78.42
2018-02-26T08:11:04.234Z,78.42
2018-02-26T08:11:57.249Z,78.42
2018-02-26T08:12:57.143Z,78.27
2018-02-26T08:13:57.126Z,78.13
2018-02-26T08:14:57.195Z,78.17
2018-02-26T08:15:57.105Z,77.98
2018-02-26T08:16:57.053Z,78.08
2018-02-26T08:17:57.051Z,78.36
2018-02-26T08:18:57.091Z,78.08
2018-02-26T08:19:57.573Z,78.64
2018-02-26T08:20:58.231Z,78.92
2018-02-26T08:21:56.951Z,79.02
2018-02-26T08:22:56.954Z,79.21
2018-02-26T08:23:56.926Z,78.74
2018-02-26T08:24:57.168Z,78.17
2018-02-26T08:25:56.877Z,78.17
2018-02-26T08:26:56.854Z,77.70
2018-02-26T08:27:57.125Z,78.83
2018-02-26T08:28:56.864Z,77.70
2018-02-26T08:29:56.795Z,77.89
2018-02-26T08:30:56.798Z,77.80
2018-02-26T08:31:56.755Z,77.80
2018-02-26T08:32:56.811Z,77.89
2018-02-26T08:33:56.787Z,77.70
2018-02-26T08:34:58.324Z,78.08
2018-02-26T08:35:56.736Z,77.89
2018-02-26T08:36:56.690Z,78.27
2018-02-26T08:37:56.638Z,78.55
2018-02-26T08:38:56.661Z,78.45
2018-02-26T08:39:56.572Z,78.45
2018-02-26T08:40:56.558Z,78.45
2018-02-26T08:41:56.526Z,78.45
2018-02-26T08:42:56.543Z,78.36
2018-02-26T08:43:56.529Z,78.64
2018-02-26T08:44:56.544Z,77.70
2018-02-26T08:45:56.454Z,78.64
2018-02-26T08:46:56.434Z,78.55
2018-02-26T08:47:56.422Z,78.36
2018-02-26T08:48:56.389Z,78.55
2018-02-26T08:49:56.372Z,77.61
2018-02-26T08:50:56.373Z,77.98
2018-02-26T08:51:56.330Z,77.61
2018-02-26T08:52:56.295Z,77.70
2018-02-26T08:53:56.316Z,77.70
2018-02-26T08:54:56.469Z,77.70
2018-02-26T08:55:56.237Z,78.27
2018-02-26T08:56:57.525Z,77.98
2018-02-26T08:57:56.226Z,77.89
2018-02-26T08:58:56.217Z,78.17
2018-02-26T08:59:56.204Z,78.55
2018-02-26T09:00:56.869Z,77.89
2018-02-26T09:01:56.112Z,77.98
2018-02-26T09:02:56.084Z,77.89
2018-02-26T09:03:56.067Z,77.70
2018-02-26T09:04:56.046Z,77.61
2018-02-26T09:05:56.081Z,77.42
2018-02-26T09:06:56.699Z,77.51
2018-02-26T09:07:56.608Z,77.51
2018-02-26T09:08:56.667Z,78.08
2018-02-26T09:09:56.544Z,78.45
2018-02-26T09:10:56.577Z,78.36
2018-02-26T09:11:56.982Z,78.45
2018-02-26T09:12:56.589Z,78.08
2018-02-26T09:13:56.030Z,77.89
2018-02-26T09:14:56.569Z,77.98
2018-02-26T09:15:55.867Z,78.27
2018-02-26T09:16:55.792Z,77.70
2018-02-26T09:17:55.805Z,77.89
2018-02-26T09:18:55.755Z,78.36
2018-02-26T09:19:55.742Z,78.45
2018-02-26T09:20:55.716Z,78.27
2018-02-26T09:21:55.699Z,77.80
2018-02-26T09:22:55.715Z,77.89
2018-02-26T09:23:55.681Z,77.70
2018-02-26T09:24:55.695Z,78.08
2018-02-26T09:25:55.611Z,77.98
2018-02-26T09:26:55.601Z,78.27
2018-02-26T09:27:55.611Z,77.80
2018-02-26T09:28:55.546Z,77.89
2018-02-26T09:29:55.542Z,78.17
2018-02-26T09:30:55.526Z,78.45
2018-02-26T09:31:55.495Z,78.17
2018-02-26T09:32:55.491Z,77.80
2018-02-26T09:33:55.464Z,77.98
2018-02-26T09:34:55.734Z,78.17
2018-02-26T09:35:55.417Z,78.08
2018-02-26T09:36:55.389Z,77.70
2018-02-26T09:37:55.375Z,78.02
2018-02-26T09:38:55.397Z,77.51
2018-02-26T09:39:55.370Z,78.08
2018-02-26T09:40:55.317Z,77.51
2018-02-26T09:41:55.297Z,78.08
2018-02-26T09:42:55.292Z,77.70
2018-02-26T09:43:55.290Z,78.45
2018-02-26T12:07:26.431Z,61.52
2018-02-26T12:08:27.904Z,61.80
2018-02-26T12:09:39.873Z,60.58
2018-02-26T12:10:27.851Z,58.87
2018-02-26T12:11:30.050Z,58.87
2018-02-26T12:14:01.936Z,56.51
2018-02-26T12:15:01.112Z,56.88
2018-02-26T12:16:01.143Z,56.57
2018-02-26T12:17:01.261Z,55.82
2018-02-26T12:18:02.530Z,55.53
2018-02-26T12:19:06.756Z,55.63
2018-02-26T12:20:01.255Z,56.20
2018-02-26T12:21:02.539Z,57.04
2018-02-26T12:22:02.306Z,56.57
2018-02-26T12:23:01.072Z,56.29
2018-02-26T12:24:00.964Z,56.20
2018-02-26T12:25:00.993Z,55.82
2018-02-26T12:26:00.981Z,55.82
2018-02-26T12:27:01.350Z,55.60
2018-02-26T12:28:00.935Z,55.88
2018-02-26T12:29:00.937Z,56.16
2018-02-26T12:30:00.874Z,56.16
2018-02-26T12:31:00.854Z,56.35
2018-02-26T12:32:00.985Z,56.35
2018-02-26T12:33:00.820Z,56.35
2018-02-26T12:34:00.868Z,56.54
2018-02-26T12:35:00.797Z,57.01
2018-02-26T12:36:00.785Z,56.54
2018-02-26T12:37:00.754Z,56.45
2018-02-26T12:38:00.743Z,56.82
2018-02-26T12:39:15.455Z,57.11
2018-02-26T12:49:46.882Z,55.98
2018-02-26T12:50:19.779Z,56.07
2018-02-26T12:51:20.791Z,55.50
2018-02-26T12:52:19.741Z,55.79
2018-02-26T12:53:20.287Z,55.69
2018-02-26T12:54:19.670Z,55.41
2018-02-26T12:55:19.685Z,55.03
2018-02-26T12:56:19.637Z,55.22
2018-02-26T12:57:19.734Z,55.03
2018-02-26T12:58:19.590Z,54.84
2018-02-26T12:59:19.824Z,55.03
2018-02-26T13:00:19.703Z,55.22
2018-02-26T13:01:19.840Z,55.60
2018-02-26T13:02:19.548Z,55.79
2018-02-26T13:03:19.512Z,56.26
2018-02-26T13:04:19.550Z,55.79
2018-02-26T13:05:19.465Z,55.69
2018-02-26T13:06:19.451Z,55.63
2018-02-26T13:07:19.438Z,56.10
2018-02-26T13:08:19.411Z,55.88
2018-02-26T13:09:19.417Z,56.10
2018-02-26T13:10:19.387Z,56.20
2018-02-26T13:11:21.399Z,55.98
2018-02-26T13:12:19.341Z,55.22
2018-02-26T13:13:19.365Z,54.93
2018-02-26T13:14:20.726Z,55.22
2018-02-26T13:15:19.310Z,55.03
2018-02-26T13:16:19.293Z,55.31
2018-02-26T13:17:19.275Z,56.07
2018-02-26T13:18:19.242Z,56.16
2018-02-26T13:19:19.212Z,55.98
2018-02-26T13:20:19.192Z,56.92
2018-02-26T13:21:19.236Z,56.45
2018-02-26T13:22:19.221Z,56.45
2018-02-26T13:23:19.140Z,56.26
2018-02-26T13:24:19.121Z,56.45
2018-02-26T13:25:19.822Z,56.63
2018-02-26T13:26:19.080Z,56.16
2018-02-26T13:27:19.083Z,55.60
2018-02-26T13:28:19.058Z,55.69
2018-02-26T13:29:19.035Z,56.45
2018-02-26T13:30:19.018Z,56.45
2018-02-26T13:31:19.014Z,56.82
2018-02-26T13:32:19.076Z,56.54
2018-02-26T13:33:18.958Z,56.82
2018-02-26T13:34:19.052Z,56.73
2018-02-26T13:35:19.842Z,57.01
2018-02-26T13:40:21.637Z,57.49
2018-02-26T13:41:22.809Z,58.72
2018-02-26T13:42:21.511Z,60.20
2018-02-26T13:43:21.506Z,61.15
2018-02-26T13:44:21.467Z,62.28
2018-02-26T13:45:21.554Z,63.60
2018-02-26T13:46:21.575Z,64.17
2018-02-26T13:47:21.406Z,65.40
2018-02-26T13:48:21.392Z,65.30
2018-02-26T13:49:21.410Z,65.78
2018-02-26T14:22:34.903Z,70.06
2018-02-26T14:23:27.962Z,70.25
2018-02-26T14:24:27.348Z,70.54
2018-02-26T14:25:29.983Z,70.82
2018-02-26T14:26:38.976Z,70.44
2018-02-26T14:27:33.067Z,70.44
2018-02-26T14:28:27.966Z,70.25
2018-02-26T14:36:44.125Z,70.10
2018-02-26T14:37:38.070Z,69.66
2018-02-26T14:38:37.750Z,69.95
2018-02-26T14:39:37.756Z,69.28
2018-02-26T14:40:37.759Z,68.15
2018-02-26T14:41:37.786Z,67.49
2018-02-26T14:42:37.728Z,65.88
2018-02-26T14:43:37.737Z,65.94
2018-02-26T14:44:37.763Z,66.98
2018-02-26T14:45:37.684Z,68.55
2018-02-26T14:46:37.722Z,70.35
2018-02-26T14:47:37.825Z,71.58
2018-02-26T14:48:37.721Z,72.52
2018-02-26T14:49:38.586Z,72.67
2018-02-26T14:50:37.850Z,73.33
2018-02-26T14:51:37.955Z,73.90
2018-02-26T14:52:37.584Z,74.38
2018-02-26T14:53:37.506Z,74.38
2018-02-26T14:54:37.480Z,74.57
2018-02-26T14:55:37.524Z,75.13
2018-02-26T14:56:37.433Z,75.13
2018-02-26T14:57:37.559Z,75.23
2018-02-26T14:58:37.426Z,75.42
2018-02-26T14:59:37.381Z,75.89
2018-02-26T15:00:37.376Z,75.51
2018-02-26T15:01:37.368Z,75.51
2018-02-26T15:02:37.402Z,75.23
2018-02-26T15:03:37.327Z,75.42
2018-02-26T15:04:37.381Z,75.23
2018-02-26T15:05:37.285Z,74.85
2018-02-26T15:06:38.649Z,74.19
2018-02-26T15:28:38.656Z,65.53
2018-02-26T15:28:51.054Z,64.26
2018-02-26T15:29:39.048Z,63.89
2018-02-26T15:30:39.038Z,63.89
2018-02-26T15:34:33.301Z,63.79
2018-02-26T15:35:32.332Z,63.98
2018-02-26T15:36:32.398Z,64.07
2018-02-26T15:37:33.052Z,64.30
2018-02-26T15:58:43.283Z,63.16
2018-02-26T15:59:43.934Z,63.82
2018-02-26T16:00:45.994Z,63.54
2018-02-26T16:01:43.322Z,64.48
2018-02-26T16:02:43.345Z,64.86
2018-02-26T16:03:43.188Z,65.62
2018-02-26T16:27:57.068Z,68.20
2018-02-26T16:28:57.044Z,68.33
2018-02-26T16:29:57.010Z,68.33
2018-02-26T16:30:56.996Z,68.48
2018-02-26T16:31:57.008Z,68.67
2018-02-26T16:32:56.973Z,68.39
2018-02-26T16:33:56.928Z,68.48
2018-02-26T16:34:56.921Z,68.67
2018-02-26T16:35:56.932Z,68.48
2018-02-26T16:36:56.897Z,68.48
2018-02-26T16:37:56.891Z,68.67
2018-02-26T16:38:56.852Z,68.39
2018-02-26T16:39:56.829Z,68.95
2018-02-26T16:40:56.809Z,68.86
2018-02-26T16:41:56.819Z,68.39
2018-02-26T16:42:56.790Z,68.48
2018-02-26T16:43:56.741Z,68.20
2018-02-26T16:44:56.728Z,68.20
2018-02-26T16:45:56.689Z,67.54
2018-02-26T16:46:56.698Z,67.44
2018-02-26T16:47:56.665Z,67.25
2018-02-26T16:48:56.631Z,67.54
2018-02-26T16:49:56.621Z,67.63
2018-02-26T16:50:56.594Z,67.91
2018-02-26T16:51:56.575Z,68.10
2018-02-26T16:52:56.603Z,67.91
2018-02-26T16:53:56.529Z,68.01
2018-02-26T16:54:56.505Z,67.35
2018-02-26T16:55:56.499Z,67.44
2018-02-26T16:56:56.495Z,68.10
2018-02-26T16:57:56.450Z,67.91
2018-02-26T16:58:56.427Z,68.10
2018-02-26T16:59:56.413Z,68.20
2018-02-26T17:00:56.540Z,68.39
2018-02-26T17:01:56.376Z,68.20
2018-02-26T17:02:56.348Z,68.39
2018-02-26T17:03:56.336Z,68.48
2018-02-26T17:04:56.310Z,68.48
2018-02-26T17:05:56.294Z,68.95
2018-02-26T17:06:56.272Z,68.95
2018-02-26T17:07:56.244Z,68.57
2018-02-26T17:08:56.238Z,68.76
2018-02-26T17:09:56.210Z,68.57
2018-02-26T17:10:56.224Z,68.76
2018-02-26T17:11:56.231Z,69.05
2018-02-26T17:12:56.148Z,69.33
2018-02-26T17:13:56.135Z,69.33
2018-02-26T17:14:56.093Z,69.33
2018-02-26T17:15:56.091Z,69.33
2018-02-26T17:19:53.467Z,69.62
2018-02-26T17:20:53.430Z,69.71
2018-02-26T17:21:53.405Z,69.71
2018-02-26T17:22:53.369Z,69.81
2018-02-26T17:23:53.415Z,69.62
2018-02-26T17:24:53.344Z,70.09
2018-02-26T17:25:53.371Z,70.00
2018-02-26T17:26:53.298Z,70.09
2018-02-26T17:27:53.276Z,70.47
2018-02-26T17:28:53.259Z,70.28
2018-02-26T17:29:53.264Z,70.28
2018-02-26T17:30:53.206Z,70.47
2018-02-26T17:31:53.201Z,70.47
2018-02-26T17:32:53.166Z,70.28
2018-02-26T17:33:53.170Z,71.12
2018-02-26T17:34:53.203Z,70.28
2018-02-26T17:35:53.751Z,70.56
2018-02-26T17:36:53.086Z,70.09
2018-02-26T17:37:53.074Z,70.28
2018-02-26T17:38:53.041Z,71.03
2018-02-26T17:39:53.021Z,70.47
2018-02-26T17:40:53.060Z,70.28
2018-02-26T17:41:52.994Z,70.28
2018-02-26T17:42:52.968Z,70.28
2018-02-26T17:43:52.940Z,69.90
2018-02-26T17:44:52.926Z,70.00
2018-02-26T17:45:52.908Z,70.00
2018-02-26T17:46:52.880Z,70.00
2018-02-26T17:47:52.857Z,70.47
2018-02-26T17:48:52.847Z,70.18
2018-02-26T23:11:58.490Z,71.00
2018-02-26T23:12:58.502Z,70.90
2018-02-26T23:13:58.407Z,70.62
2018-02-26T23:14:58.388Z,70.81
2018-02-26T23:15:58.377Z,70.62
2018-02-26T23:16:58.352Z,70.81
2018-02-26T23:17:58.334Z,70.34
2018-02-26T23:18:58.340Z,70.53
2018-02-26T23:19:58.344Z,70.34
2018-02-26T23:20:58.251Z,70.43
2018-02-26T23:21:58.239Z,70.34
2018-02-26T23:22:58.209Z,70.43
2018-02-26T23:23:58.205Z,70.05
2018-02-26T23:24:58.175Z,70.15
2018-02-26T23:25:58.205Z,70.15
2018-02-26T23:26:58.118Z,69.96
2018-02-26T23:27:58.103Z,70.05
2018-02-26T23:28:58.086Z,69.86
2018-02-26T23:29:58.065Z,69.86
2018-02-26T23:30:58.039Z,69.86
2018-02-26T23:31:58.025Z,70.53
2018-02-26T23:32:57.987Z,70.53
2018-02-26T23:33:57.971Z,70.43
2018-02-26T23:34:57.946Z,70.15
2018-02-26T23:35:57.934Z,70.43
2018-02-26T23:36:57.937Z,70.43
2018-02-26T23:37:57.892Z,70.05
2018-02-26T23:38:57.872Z,70.02
2018-02-26T23:39:57.846Z,69.96
2018-02-26T23:40:57.842Z,70.02
2018-02-26T23:41:57.797Z,70.15
2018-02-26T23:42:57.807Z,70.02
2018-02-26T23:43:57.761Z,70.43
2018-02-26T23:44:57.732Z,69.96
2018-02-26T23:45:57.715Z,70.02
2018-02-26T23:46:57.687Z,69.54
2018-02-26T23:47:57.659Z,69.54
2018-02-26T23:48:57.638Z,69.45
2018-02-26T23:49:57.612Z,69.45
2018-02-26T23:50:57.596Z,70.30
2018-02-26T23:51:57.624Z,70.02
2018-02-26T23:52:57.553Z,69.45
2018-02-26T23:53:57.542Z,69.64
2018-02-26T23:54:57.506Z,69.45
2018-02-26T23:55:57.491Z,69.54
2018-02-26T23:56:57.470Z,70.02
2018-02-26T23:57:57.498Z,70.11
2018-02-26T23:58:57.415Z,69.96
2018-02-26T23:59:57.394Z,69.92
